Time,TemperatureF,DewpointF,PressureIn,WindDirection,WindDirectionDegrees,WindSpeedMPH,WindSpeedGustMPH,Humidity,HourlyPrecipIn,Conditions,Clouds,dailyrainin,SolarRadiationWatts/m^2,SoftwareType,DateUTC
2013-02-21 00:00:00,30.8,13.4,28.77,SE,127,8.0,14.0,48,0.00,FEW,,0.00,0.0,WeatherDisplay:10.37,2013-02-21 06:00:00,
2013-02-21 00:10:00,30.7,13.8,28.77,SE,128,2.0,15.0,49,0.00,FEW,,0.00,0.0,WeatherDisplay:10.37,2013-02-21 06:10:00,
2013-02-21 00:20:00,30.6,14.1,28.76,SE,131,8.0,14.0,50,0.00,FEW,,0.00,0.0,WeatherDisplay:10.37,2013-02-21 06:20:00,
2013-02-21 00:30:00,30.5,15.4,28.77,SE,132,0.0,12.0,53,0.00,FEW,,0.00,0.0,WeatherDisplay:10.37,2013-02-21 06:30:00,
2013-02-21 00:40:00,30.6,15.0,28.78,SE,130,5.0,7.0,52,0.00,FEW,,0.00,0.0,WeatherDisplay:10.37,2013-02-21 06:40:00,
2013-02-21 00:50:00,30.6,14.6,28.78,SE,132,6.0,12.0,51,0.00,FEW,,0.00,0.0,WeatherDisplay:10.37,2013-02-21 06:50:00,
2013-02-21 01:00:00,30.3,16.1,28.77,ESE,119,5.0,12.0,55,0.00,FEW,,0.00,0.0,WeatherDisplay:10.37,2013-02-21 07:00:00,
2013-02-21 01:10:00,29.8,17.2,28.76,SE,129,3.0,14.0,59,0.00,FEW,,0.00,0.0,WeatherDisplay:10.37,2013-02-21 07:10:00,
2013-02-21 01:20:00,29.3,17.5,28.76,SE,137,7.0,14.0,61,0.00,FEW,,0.00,0.0,WeatherDisplay:10.37,2013-02-21 07:20:00,
2013-02-21 01:30:00,28.9,18.2,28.76,SE,132,8.0,20.0,64,0.00,FEW,,0.00,0.0,WeatherDisplay:10.37,2013-02-21 07:30:00,
2013-02-21 01:40:00,28.6,19.0,28.75,SE,127,3.0,16.0,67,0.00,FEW,,0.00,0.0,WeatherDisplay:10.37,2013-02-21 07:40:00,
2013-02-21 01:50:00,28.4,18.8,28.74,ESE,109,6.0,15.0,67,0.00,FEW,,0.00,0.0,WeatherDisplay:10.37,2013-02-21 07:50:00,
2013-02-21 02:00:00,28.2,19.3,28.74,ESE,110,3.0,15.0,69,0.00,FEW,,0.00,0.0,WeatherDisplay:10.37,2013-02-21 08:00:00,
2013-02-21 02:10:00,28.1,19.6,28.73,ESE,117,6.0,12.0,70,0.00,FEW,,0.00,0.0,WeatherDisplay:10.37,2013-02-21 08:10:00,
2013-02-21 02:20:00,28.2,19.3,28.72,SE,132,3.0,12.0,69,0.00,FEW,,0.00,0.0,WeatherDisplay:10.37,2013-02-21 08:20:00,
2013-02-21 02:30:00,28.1,18.9,28.71,ESE,121,7.0,14.0,68,0.00,FEW,,0.00,0.0,WeatherDisplay:10.37,2013-02-21 08:30:00,
2013-02-21 02:40:00,28.1,18.9,28.70,SE,125,2.0,12.0,68,0.00,FEW,,0.00,0.0,WeatherDisplay:10.37,2013-02-21 08:40:00,
2013-02-21 02:50:00,28.2,19.0,28.70,SE,143,6.0,14.0,68,0.00,FEW,,0.00,0.0,WeatherDisplay:10.37,2013-02-21 08:50:00,
2013-02-21 03:00:00,28.2,18.6,28.69,SE,138,6.0,20.0,67,0.00,FEW,,0.00,0.0,WeatherDisplay:10.37,2013-02-21 09:00:00,
2013-02-21 03:10:00,28.0,18.5,28.70,SE,133,9.0,20.0,67,0.00,FEW,,0.00,0.0,WeatherDisplay:10.37,2013-02-21 09:10:00,
2013-02-21 03:20:00,27.9,18.7,28.69,SE,141,6.0,20.0,68,0.00,FEW,,0.00,0.0,WeatherDisplay:10.37,2013-02-21 09:20:00,
2013-02-21 03:30:00,27.6,19.4,28.69,SE,137,10.0,20.0,71,0.00,FEW,,0.00,0.0,WeatherDisplay:10.37,2013-02-21 09:30:00,
2013-02-21 03:40:00,27.4,19.6,28.70,SE,141,10.0,20.0,72,0.00,FEW,,0.00,0.0,WeatherDisplay:10.37,2013-02-21 09:40:00,
2013-02-21 03:50:00,27.4,19.6,28.65,SE,134,12.0,20.0,72,0.00,FEW,,0.00,0.0,WeatherDisplay:10.37,2013-02-21 09:50:00,
2013-02-21 04:00:00,27.3,21.1,28.64,SE,137,12.0,20.0,77,0.00,FEW,,0.00,0.0,WeatherDisplay:10.37,2013-02-21 10:00:00,
2013-02-21 04:10:00,27.0,21.1,28.63,SE,132,8.0,18.0,78,0.00,FEW,,0.00,0.0,WeatherDisplay:10.37,2013-02-21 10:10:00,
2013-02-21 04:20:00,27.0,21.1,28.64,SE,135,6.0,22.0,78,0.00,FEW,,0.00,0.0,WeatherDisplay:10.37,2013-02-21 10:20:00,
2013-02-21 04:30:00,27.0,21.1,28.62,SE,138,9.0,17.0,78,0.00,FEW,,0.00,0.0,WeatherDisplay:10.37,2013-02-21 10:30:00,
2013-02-21 04:40:00,27.1,20.8,28.63,SSE,149,8.0,14.0,77,0.00,FEW,,0.00,0.0,WeatherDisplay:10.37,2013-02-21 10:40:00,
2013-02-21 04:50:00,27.1,20.8,28.61,SE,145,8.0,20.0,77,0.00,FEW,,0.00,0.0,WeatherDisplay:10.37,2013-02-21 10:50:00,
2013-02-21 05:00:00,27.2,20.9,28.62,SE,143,8.0,18.0,77,0.00,FEW,,0.00,0.0,WeatherDisplay:10.37,2013-02-21 11:00:00,
2013-02-21 05:10:00,27.3,21.9,28.62,SE,129,7.0,13.0,80,0.00,FEW,,0.00,0.0,WeatherDisplay:10.37,2013-02-21 11:10:00,
2013-02-21 05:20:00,27.1,21.7,28.60,SE,126,6.0,20.0,80,0.00,FEW,,0.00,0.0,WeatherDisplay:10.37,2013-02-21 11:20:00,
2013-02-21 05:30:00,27.1,21.5,28.62,SE,139,10.0,18.0,79,0.00,FEW,,0.00,0.0,WeatherDisplay:10.37,2013-02-21 11:30:00,
2013-02-21 05:40:00,27.1,22.1,28.60,ESE,122,8.0,18.0,81,0.00,FEW,,0.00,0.0,WeatherDisplay:10.37,2013-02-21 11:40:00,
2013-02-21 05:50:00,27.1,21.8,28.58,ESE,122,8.0,20.0,80,0.00,FEW,,0.00,0.0,WeatherDisplay:10.37,2013-02-21 11:50:00,
2013-02-21 06:00:00,27.1,22.1,28.59,SE,140,6.0,14.0,81,0.00,FEW,,0.00,0.0,WeatherDisplay:10.37,2013-02-21 12:00:00,
2013-02-21 06:10:00,27.2,22.1,28.59,SE,140,8.0,17.0,81,0.00,FEW,,0.00,0.0,WeatherDisplay:10.37,2013-02-21 12:10:00,
2013-02-21 06:20:00,27.2,22.4,28.59,SE,125,3.0,10.0,82,0.00,FEW,,0.00,0.0,WeatherDisplay:10.37,2013-02-21 12:20:00,
2013-02-21 06:30:00,27.3,22.8,28.56,SE,124,2.0,16.0,83,0.00,FEW,,0.00,0.0,WeatherDisplay:10.37,2013-02-21 12:30:00,
2013-02-21 06:40:00,27.5,23.6,28.57,ESE,123,5.0,16.0,85,0.00,FEW,,0.00,0.0,WeatherDisplay:10.37,2013-02-21 12:40:00,
2013-02-21 06:50:00,27.5,24.1,28.60,SSE,152,7.0,20.0,87,0.00,FEW,,0.00,0.0,WeatherDisplay:10.37,2013-02-21 12:50:00,
2013-02-21 07:00:00,27.5,24.4,28.56,ESE,121,8.0,16.0,88,0.00,FEW,,0.00,0.0,WeatherDisplay:10.37,2013-02-21 13:00:00,
2013-02-21 07:10:00,27.6,24.5,28.53,ESE,119,9.0,20.0,88,0.00,FEW,,0.00,0.0,WeatherDisplay:10.37,2013-02-21 13:10:00,
2013-02-21 07:20:00,27.5,24.2,28.57,SE,133,9.0,16.0,87,0.00,FEW,,0.00,0.0,WeatherDisplay:10.37,2013-02-21 13:20:00,
2013-02-21 07:30:00,27.5,23.8,28.58,SE,132,6.0,14.0,86,0.00,FEW,,0.00,0.0,WeatherDisplay:10.37,2013-02-21 13:30:00,
2013-02-21 07:40:00,27.7,24.3,28.55,SE,136,9.0,22.0,87,0.00,FEW,,0.00,0.0,WeatherDisplay:10.37,2013-02-21 13:40:00,
2013-02-21 07:50:00,27.9,24.5,28.56,SE,130,8.0,18.0,87,0.00,FEW,,0.00,0.0,WeatherDisplay:10.37,2013-02-21 13:50:00,
2013-02-21 08:00:00,27.8,24.2,28.58,SE,142,1.0,14.0,86,0.00,FEW,,0.00,0.0,WeatherDisplay:10.37,2013-02-21 14:00:00,
2013-02-21 08:10:00,27.6,24.0,28.54,SE,129,9.0,18.0,86,0.00,FEW,,0.00,0.0,WeatherDisplay:10.37,2013-02-21 14:10:00,
2013-02-21 08:20:00,27.4,24.1,28.53,ESE,118,9.0,17.0,87,0.00,FEW,,0.00,0.0,WeatherDisplay:10.37,2013-02-21 14:20:00,
2013-02-21 08:30:00,27.5,24.1,28.51,SE,129,6.0,18.0,87,0.00,FEW,,0.00,0.0,WeatherDisplay:10.37,2013-02-21 14:30:00,
2013-02-21 08:40:00,27.4,24.0,28.51,SE,137,8.0,17.0,87,0.00,FEW,,0.00,0.0,WeatherDisplay:10.37,2013-02-21 14:40:00,
2013-02-21 08:50:00,27.4,24.0,28.50,ESE,119,9.0,24.0,87,0.00,FEW,,0.00,0.0,WeatherDisplay:10.37,2013-02-21 14:50:00,
2013-02-21 09:00:00,27.4,23.8,28.50,SE,138,13.0,18.0,86,0.00,FEW,,0.00,0.0,WeatherDisplay:10.37,2013-02-21 15:00:00,
2013-02-21 09:10:00,27.5,23.9,28.48,ESE,119,8.0,20.0,86,0.00,FEW,,0.00,0.0,WeatherDisplay:10.37,2013-02-21 15:10:00,
2013-02-21 09:20:00,27.4,23.8,28.47,SE,130,9.0,20.0,86,0.00,FEW,,0.00,0.0,WeatherDisplay:10.37,2013-02-21 15:20:00,
2013-02-21 09:30:00,27.6,24.0,28.48,SE,139,6.0,21.0,86,0.00,FEW,,0.00,0.0,WeatherDisplay:10.37,2013-02-21 15:30:00,
2013-02-21 09:40:00,27.6,23.7,28.47,SE,127,14.0,23.0,85,0.00,FEW,,0.00,0.0,WeatherDisplay:10.37,2013-02-21 15:40:00,
2013-02-21 09:50:00,27.7,23.8,28.49,SE,125,5.0,17.0,85,0.00,FEW,,0.00,0.0,WeatherDisplay:10.37,2013-02-21 15:50:00,
2013-02-21 10:00:00,28.0,24.1,28.52,North,354,2.0,7.0,85,0.00,FEW,,0.00,0.0,WeatherDisplay:10.37,2013-02-21 16:00:00,
2013-02-21 10:10:00,28.0,24.1,28.51,East,92,3.0,12.0,85,0.00,FEW,,0.00,0.0,WeatherDisplay:10.37,2013-02-21 16:10:00,
2013-02-21 10:20:00,28.0,24.1,28.52,NE,54,3.0,9.0,85,0.00,FEW,,0.00,0.0,WeatherDisplay:10.37,2013-02-21 16:20:00,
2013-02-21 10:30:00,28.2,24.6,28.68,South,174,2.0,9.0,86,0.00,FEW,,0.00,0.0,WeatherDisplay:10.37,2013-02-21 16:30:00,
2013-02-21 10:40:00,28.1,24.7,28.57,NNE,25,3.0,9.0,87,0.00,FEW,,0.00,0.0,WeatherDisplay:10.37,2013-02-21 16:40:00,
2013-02-21 10:50:00,27.8,24.7,28.59,SE,127,0.0,7.0,88,0.00,FEW,,0.00,0.0,WeatherDisplay:10.37,2013-02-21 16:50:00,
2013-02-21 11:00:00,27.7,24.9,28.56,ENE,65,1.0,6.0,89,0.00,FEW,,0.00,0.0,WeatherDisplay:10.37,2013-02-21 17:00:00,
2013-02-21 11:10:00,27.6,24.8,28.58,NE,55,0.0,5.0,89,0.00,FEW,,0.00,0.0,WeatherDisplay:10.37,2013-02-21 17:10:00,
2013-02-21 11:20:00,27.7,25.2,28.58,ENE,58,0.0,3.0,90,0.00,FEW,,0.00,0.0,WeatherDisplay:10.37,2013-02-21 17:20:00,
2013-02-21 11:30:00,27.9,25.6,28.56,NNW,327,0.0,4.0,91,0.00,FEW,,0.00,0.0,WeatherDisplay:10.37,2013-02-21 17:30:00,
2013-02-21 11:40:00,27.9,25.6,28.57,East,82,0.0,7.0,91,0.00,FEW,,0.00,0.0,WeatherDisplay:10.37,2013-02-21 17:40:00,
2013-02-21 11:50:00,27.8,25.5,28.52,ESE,102,3.0,12.0,91,0.00,FEW,,0.00,0.0,WeatherDisplay:10.37,2013-02-21 17:50:00,
2013-02-21 12:00:00,27.8,25.8,28.52,East,89,1.0,12.0,92,0.00,FEW,,0.00,0.0,WeatherDisplay:10.37,2013-02-21 18:00:00,
2013-02-21 12:10:00,28.0,26.0,28.50,ESE,112,6.0,12.0,92,0.00,FEW,,0.00,0.0,WeatherDisplay:10.37,2013-02-21 18:10:00,
2013-02-21 12:20:00,28.5,26.5,28.49,East,101,2.0,12.0,92,0.00,FEW,,0.00,0.0,WeatherDisplay:10.37,2013-02-21 18:20:00,
2013-02-21 12:30:00,28.6,26.3,28.53,ESE,117,6.0,17.0,91,0.00,FEW,,0.00,0.0,WeatherDisplay:10.37,2013-02-21 18:30:00,
2013-02-21 12:40:00,28.5,26.2,28.50,SE,131,3.0,12.0,91,0.00,FEW,,0.00,0.0,WeatherDisplay:10.37,2013-02-21 18:40:00,
2013-02-21 12:50:00,28.8,26.5,28.46,East,93,6.0,17.0,91,0.00,FEW,,0.00,0.0,WeatherDisplay:10.37,2013-02-21 18:50:00,
2013-02-21 13:00:00,28.9,26.3,28.46,East,83,3.0,13.0,90,0.00,FEW,,0.00,0.0,WeatherDisplay:10.37,2013-02-21 19:00:00,
2013-02-21 13:10:00,28.9,26.3,28.46,East,83,8.0,15.0,90,0.00,FEW,,0.00,0.0,WeatherDisplay:10.37,2013-02-21 19:10:00,
2013-02-21 13:20:00,29.3,26.7,28.46,East,83,5.0,13.0,90,0.00,FEW,,0.00,0.0,WeatherDisplay:10.37,2013-02-21 19:20:00,
2013-02-21 13:30:00,29.3,26.8,28.44,East,83,7.0,14.0,90,0.00,FEW,,0.00,0.0,WeatherDisplay:10.37,2013-02-21 19:30:00,
2013-02-21 13:40:00,29.3,26.7,28.43,East,83,8.0,15.0,90,0.00,FEW,,0.00,0.0,WeatherDisplay:10.37,2013-02-21 19:40:00,
2013-02-21 13:50:00,29.3,26.7,28.42,East,83,5.0,15.0,90,0.00,FEW,,0.00,0.0,WeatherDisplay:10.37,2013-02-21 19:50:00,
2013-02-21 14:00:00,29.3,26.7,28.42,East,83,8.0,17.0,90,0.00,FEW,,0.00,0.0,WeatherDisplay:10.37,2013-02-21 20:00:00,
2013-02-21 14:10:00,29.5,27.2,28.40,East,83,7.0,16.0,91,0.00,FEW,,0.00,0.0,WeatherDisplay:10.37,2013-02-21 20:10:00,
2013-02-21 14:20:00,29.6,27.6,28.42,East,83,7.0,18.0,92,0.00,FEW,,0.00,0.0,WeatherDisplay:10.37,2013-02-21 20:20:00,
2013-02-21 14:30:00,29.7,27.4,28.40,East,83,8.0,15.0,91,0.00,FEW,,0.00,0.0,WeatherDisplay:10.37,2013-02-21 20:30:00,
2013-02-21 14:40:00,29.8,27.5,28.40,East,83,6.0,16.0,91,0.00,FEW,,0.00,0.0,WeatherDisplay:10.37,2013-02-21 20:40:00,
2013-02-21 14:50:00,29.9,27.6,28.40,East,83,7.0,18.0,91,0.00,FEW,,0.00,0.0,WeatherDisplay:10.37,2013-02-21 20:50:00,
2013-02-21 15:00:00,30.0,28.0,28.40,East,83,7.0,12.0,92,0.00,FEW,,0.00,0.0,WeatherDisplay:10.37,2013-02-21 21:00:00,
2013-02-21 15:10:00,30.2,28.2,28.40,East,83,6.0,14.0,92,0.00,FEW,,0.00,0.0,WeatherDisplay:10.37,2013-02-21 21:10:00,
2013-02-21 15:20:00,30.2,28.2,28.40,East,83,6.0,14.0,92,0.00,FEW,,0.00,0.0,WeatherDisplay:10.37,2013-02-21 21:20:00,
2013-02-21 15:30:00,30.3,28.3,28.40,East,83,6.0,14.0,92,0.00,FEW,,0.00,0.0,WeatherDisplay:10.37,2013-02-21 21:30:00,
2013-02-21 15:40:00,30.3,28.3,28.39,East,83,5.0,15.0,92,0.00,FEW,,0.00,0.0,WeatherDisplay:10.37,2013-02-21 21:40:00,
2013-02-21 15:50:00,30.4,28.4,28.38,East,83,5.0,13.0,92,0.00,FEW,,0.00,0.0,WeatherDisplay:10.37,2013-02-21 21:50:00,
2013-02-21 16:00:00,30.5,28.4,28.40,East,83,7.0,14.0,92,0.00,FEW,,0.00,0.0,WeatherDisplay:10.37,2013-02-21 22:00:00,
2013-02-21 16:10:00,30.5,28.7,28.39,East,83,9.0,15.0,93,0.00,FEW,,0.00,0.0,WeatherDisplay:10.37,2013-02-21 22:10:00,
2013-02-21 16:20:00,30.6,28.8,28.40,East,83,8.0,16.0,93,0.00,FEW,,0.00,0.0,WeatherDisplay:10.37,2013-02-21 22:20:00,
2013-02-21 16:30:00,30.6,28.8,28.39,East,83,9.0,18.0,93,0.00,FEW,,0.00,0.0,WeatherDisplay:10.37,2013-02-21 22:30:00,
2013-02-21 16:40:00,30.6,28.8,28.39,East,83,8.0,15.0,93,0.00,FEW,,0.00,0.0,WeatherDisplay:10.37,2013-02-21 22:40:00,
2013-02-21 16:50:00,30.6,28.8,28.39,East,83,6.0,16.0,93,0.00,FEW,,0.00,0.0,WeatherDisplay:10.37,2013-02-21 22:50:00,
2013-02-21 17:00:00,30.7,28.9,28.40,East,83,10.0,16.0,93,0.00,FEW,,0.00,0.0,WeatherDisplay:10.37,2013-02-21 23:00:00,
2013-02-21 17:10:00,30.8,29.0,28.40,East,83,7.0,14.0,93,0.00,FEW,,0.00,0.0,WeatherDisplay:10.37,2013-02-21 23:10:00,
2013-02-21 17:20:00,30.8,29.0,28.40,East,83,6.0,15.0,93,0.00,FEW,,0.00,0.0,WeatherDisplay:10.37,2013-02-21 23:20:00,
2013-02-21 17:30:00,30.8,29.0,28.41,East,83,6.0,13.0,93,0.00,FEW,,0.00,0.0,WeatherDisplay:10.37,2013-02-21 23:30:00,
2013-02-21 17:40:00,30.8,29.0,28.42,East,83,3.0,13.0,93,0.00,FEW,,0.00,0.0,WeatherDisplay:10.37,2013-02-21 23:40:00,
2013-02-21 17:50:00,30.8,29.3,28.42,East,83,7.0,14.0,94,0.00,FEW,,0.00,0.0,WeatherDisplay:10.37,2013-02-21 23:50:00,
2013-02-21 18:00:00,30.8,29.3,28.42,East,83,5.0,12.0,94,0.00,FEW,,0.00,0.0,WeatherDisplay:10.37,2013-02-22 00:00:00,
2013-02-21 18:10:00,30.8,29.3,28.43,East,83,3.0,9.0,94,0.00,FEW,,0.00,0.0,WeatherDisplay:10.37,2013-02-22 00:10:00,
2013-02-21 18:20:00,30.7,29.2,28.43,East,83,6.0,12.0,94,0.00,FEW,,0.00,0.0,WeatherDisplay:10.37,2013-02-22 00:20:00,
2013-02-21 18:30:00,30.7,29.2,28.43,East,83,8.0,12.0,94,0.00,FEW,,0.00,0.0,WeatherDisplay:10.37,2013-02-22 00:30:00,
2013-02-21 18:40:00,30.7,29.2,28.43,East,83,8.0,12.0,94,0.00,FEW,,0.00,0.0,WeatherDisplay:10.37,2013-02-22 00:40:00,
2013-02-21 18:50:00,30.6,29.1,28.44,East,83,6.0,12.0,94,0.00,FEW,,0.00,0.0,WeatherDisplay:10.37,2013-02-22 00:50:00,
2013-02-21 19:00:00,30.7,29.1,28.44,East,83,5.0,13.0,94,0.00,FEW,,0.00,0.0,WeatherDisplay:10.37,2013-02-22 01:00:00,
2013-02-21 19:10:00,30.7,29.2,28.44,East,83,6.0,12.0,94,0.00,FEW,,0.00,0.0,WeatherDisplay:10.37,2013-02-22 01:10:00,
2013-02-21 19:20:00,30.8,29.3,28.44,East,83,7.0,12.0,94,0.00,FEW,,0.00,0.0,WeatherDisplay:10.37,2013-02-22 01:20:00,
2013-02-21 19:30:00,30.8,29.3,28.44,East,83,7.0,13.0,94,0.00,FEW,,0.00,0.0,WeatherDisplay:10.37,2013-02-22 01:30:00,
2013-02-21 19:40:00,30.8,29.3,28.44,East,83,6.0,12.0,94,0.00,FEW,,0.00,0.0,WeatherDisplay:10.37,2013-02-22 01:40:00,
2013-02-21 19:50:00,30.9,29.4,28.45,East,83,6.0,14.0,94,0.00,FEW,,0.00,0.0,WeatherDisplay:10.37,2013-02-22 01:50:00,
2013-02-21 20:00:00,30.9,29.4,28.44,East,83,7.0,12.0,94,0.00,FEW,,0.00,0.0,WeatherDisplay:10.37,2013-02-22 02:00:00,
2013-02-21 20:10:00,30.9,29.4,28.44,East,83,5.0,12.0,94,0.00,FEW,,0.00,0.0,WeatherDisplay:10.37,2013-02-22 02:10:00,
2013-02-21 20:20:00,30.8,29.5,28.44,East,83,6.0,12.0,95,0.00,FEW,,0.00,0.0,WeatherDisplay:10.37,2013-02-22 02:20:00,
2013-02-21 20:30:00,30.9,29.6,28.44,East,83,5.0,10.0,95,0.00,FEW,,0.00,0.0,WeatherDisplay:10.37,2013-02-22 02:30:00,
2013-02-21 20:40:00,30.9,29.6,28.44,East,83,7.0,12.0,95,0.00,FEW,,0.00,0.0,WeatherDisplay:10.37,2013-02-22 02:40:00,
2013-02-21 20:50:00,31.0,29.7,28.44,East,83,5.0,12.0,95,0.00,FEW,,0.00,0.0,WeatherDisplay:10.37,2013-02-22 02:50:00,
2013-02-21 21:00:00,31.1,29.8,28.44,East,83,3.0,10.0,95,0.00,FEW,,0.00,0.0,WeatherDisplay:10.37,2013-02-22 03:00:00,
2013-02-21 21:10:00,31.1,29.8,28.44,East,83,5.0,12.0,95,0.00,FEW,,0.00,0.0,WeatherDisplay:10.37,2013-02-22 03:10:00,
2013-02-21 21:20:00,31.1,29.9,28.44,East,83,5.0,12.0,95,0.00,FEW,,0.00,0.0,WeatherDisplay:10.37,2013-02-22 03:20:00,
2013-02-21 21:30:00,31.2,30.0,28.45,East,83,0.0,8.0,95,0.00,FEW,,0.00,0.0,WeatherDisplay:10.37,2013-02-22 03:30:00,
2013-02-21 21:40:00,31.3,30.0,28.45,East,83,3.0,7.0,95,0.00,FEW,,0.00,0.0,WeatherDisplay:10.37,2013-02-22 03:40:00,
2013-02-21 21:50:00,31.3,30.0,28.45,East,83,1.0,6.0,95,0.00,FEW,,0.00,0.0,WeatherDisplay:10.37,2013-02-22 03:50:00,
2013-02-21 22:00:00,31.3,30.1,28.45,East,83,1.0,6.0,95,0.00,FEW,,0.00,0.0,WeatherDisplay:10.37,2013-02-22 04:00:00,
2013-02-21 22:10:00,31.4,30.1,28.46,East,83,3.0,9.0,95,0.00,FEW,,0.00,0.0,WeatherDisplay:10.37,2013-02-22 04:10:00,
2013-02-21 22:20:00,31.4,30.1,28.46,East,83,5.0,7.0,95,0.00,FEW,,0.00,0.0,WeatherDisplay:10.37,2013-02-22 04:20:00,
2013-02-21 22:30:00,31.4,30.1,28.46,East,83,2.0,7.0,95,0.00,FEW,,0.00,0.0,WeatherDisplay:10.37,2013-02-22 04:30:00,
2013-02-21 22:40:00,31.4,30.1,28.46,East,83,6.0,9.0,95,0.00,FEW,,0.00,0.0,WeatherDisplay:10.37,2013-02-22 04:40:00,
2013-02-21 22:50:00,31.3,30.0,28.46,East,83,3.0,8.0,95,0.00,FEW,,0.00,0.0,WeatherDisplay:10.37,2013-02-22 04:50:00,
2013-02-21 23:00:00,31.3,30.0,28.46,East,83,1.0,8.0,95,0.00,FEW,,0.00,0.0,WeatherDisplay:10.37,2013-02-22 05:00:00,
2013-02-21 23:10:00,31.5,30.5,28.46,East,83,3.0,6.0,96,0.00,FEW,,0.00,0.0,WeatherDisplay:10.37,2013-02-22 05:10:00,
2013-02-21 23:20:00,31.6,30.6,28.47,East,83,3.0,5.0,96,0.00,FEW,,0.00,0.0,WeatherDisplay:10.37,2013-02-22 05:20:00,
2013-02-21 23:30:00,31.6,30.6,28.47,East,83,2.0,4.0,96,0.00,FEW,,0.00,0.0,WeatherDisplay:10.37,2013-02-22 05:30:00,
2013-02-21 23:40:00,31.9,30.9,28.47,East,83,3.0,6.0,96,0.00,FEW,,0.00,0.0,WeatherDisplay:10.37,2013-02-22 05:40:00,
2013-02-21 23:50:00,32.2,31.2,28.47,East,83,3.0,7.0,96,0.00,FEW,,0.00,0.0,WeatherDisplay:10.37,2013-02-22 05:50:00,